Datum - Zeit
Döttingen
TemperaturTaupunktFeuchteSolar Wind aus
Richtung
Windböenaus
Richtung
Luftdruck
(QFF)
RegenRegen
Stärke
27.01.2021 - 00.00Uhr0.3 °C-2.7 °C80 %0.0 W/m²1023.2 hPa0.0 mm0.0 mm/h
27.01.2021 - 00.05Uhr0.3 °C-2.7 °C80 %0.0 W/m²1.1 km/hSüd-SO4.0 km/hSüd-SO1023.1 hPa0.0 mm0.0 mm/h
27.01.2021 - 00.10Uhr0.3 °C-2.7 °C80 %0.0 W/m²0.0 km/hSüd-SO0.0 km/hNorden1023.0 hPa0.0 mm0.0 mm/h
27.01.2021 - 00.15Uhr0.3 °C-2.7 °C81 %0.0 W/m²1022.9 hPa0.0 mm0.0 mm/h
27.01.2021 - 00.20Uhr0.2 °C-2.8 °C80 %0.0 W/m²0.6 km/hSüd-SO1.8 km/hSüd-SO1022.9 hPa0.0 mm0.0 mm/h
27.01.2021 - 00.25Uhr0.2 °C-2.8 °C80 %0.0 W/m²4.1 km/hSüd-SO8.3 km/hSüd-SO1022.8 hPa0.0 mm0.0 mm/h
27.01.2021 - 00.30Uhr-0.1 °C-2.9 °C82 %0.0 W/m²4.1 km/hSüd-SO8.3 km/hSüd-SO1022.7 hPa0.0 mm0.0 mm/h
27.01.2021 - 00.35Uhr-0.2 °C-2.9 °C82 %0.0 W/m²3.9 km/hSüd-SO8.3 km/hSüd-SO1022.7 hPa0.0 mm0.0 mm/h
27.01.2021 - 00.40Uhr-0.2 °C-2.9 °C82 %0.0 W/m²6.6 km/hSüd-SO8.3 km/hSüd-SO1022.5 hPa0.0 mm0.0 mm/h
27.01.2021 - 00.45Uhr-0.2 °C-2.9 °C82 %0.0 W/m²8.7 km/hSüd-SO10.1 km/hSüd-SO1022.5 hPa0.0 mm0.0 mm/h
27.01.2021 - 00.50Uhr-0.5 °C-3.2 °C82 %0.0 W/m²6.2 km/hSüd-SO8.3 km/hSüd-SO1022.4 hPa0.0 mm0.0 mm/h
27.01.2021 - 00.55Uhr-0.7 °C-3.3 °C83 %0.0 W/m²5.7 km/hSüd-SO8.3 km/hSüd-SO1022.4 hPa0.0 mm0.0 mm/h
27.01.2021 - 01.00Uhr-0.6 °C-3.1 °C83 %0.0 W/m²5.2 km/hSüd-SO12.2 km/hSüd-SO1022.3 hPa0.0 mm0.0 mm/h
27.01.2021 - 01.05Uhr-0.6 °C-3.1 °C83 %0.0 W/m²6.6 km/hSüd-SO8.3 km/hSüd-SO1022.3 hPa0.0 mm0.0 mm/h
27.01.2021 - 01.10Uhr-0.7 °C-3.1 °C84 %0.0 W/m²6.7 km/hSüd-SO8.3 km/hSüd-SO1022.4 hPa0.0 mm0.0 mm/h
27.01.2021 - 01.15Uhr-0.6 °C-3.0 °C83 %0.0 W/m²5.9 km/hSüd-SO8.3 km/hSüd-SO1022.3 hPa0.0 mm0.0 mm/h
27.01.2021 - 01.20Uhr-0.6 °C-3.1 °C83 %0.0 W/m²5.8 km/hSüd-SO8.3 km/hSüd-SO1022.1 hPa0.0 mm0.0 mm/h
27.01.2021 - 01.25Uhr-1.2 °C-3.9 °C82 %0.0 W/m²7.2 km/hSüd-SO8.3 km/hSüd-SO1022.0 hPa0.0 mm0.0 mm/h
27.01.2021 - 01.30Uhr-1.8 °C-4.2 °C84 %0.0 W/m²7.6 km/hSüd-SO8.3 km/hSüd-SO1022.0 hPa0.0 mm0.0 mm/h
27.01.2021 - 01.35Uhr-1.4 °C-3.5 °C85 %0.0 W/m²6.5 km/hSüd-SO8.3 km/hSüd-SO1022.0 hPa0.0 mm0.0 mm/h
27.01.2021 - 01.40Uhr-1.0 °C-3.3 °C85 %0.0 W/m²6.0 km/hSüd-SO8.3 km/hSüd-SO1022.0 hPa0.0 mm0.0 mm/h
27.01.2021 - 01.45Uhr-0.9 °C-3.2 °C84 %0.0 W/m²6.0 km/hSüd-SO10.1 km/hSüd-SO1021.9 hPa0.0 mm0.0 mm/h
27.01.2021 - 01.50Uhr-0.7 °C-3.1 °C84 %0.0 W/m²5.4 km/hSüd-SO8.3 km/hSüd-SO1021.9 hPa0.0 mm0.0 mm/h
27.01.2021 - 01.55Uhr-0.7 °C-3.1 °C84 %0.0 W/m²5.8 km/hSüd-SO8.3 km/hSüd-SO1021.7 hPa0.0 mm0.0 mm/h
27.01.2021 - 02.00Uhr-0.7 °C-3.1 °C84 %0.0 W/m²5.0 km/hSüd-SO8.3 km/hSüd-SO1021.6 hPa0.0 mm0.0 mm/h
27.01.2021 - 02.05Uhr-0.7 °C-3.1 °C84 %0.0 W/m²3.0 km/hSüd-SO8.3 km/hSüd-SO1021.6 hPa0.0 mm0.0 mm/h
27.01.2021 - 02.10Uhr-0.9 °C-3.3 °C84 %0.0 W/m²4.5 km/hSüd-SO8.3 km/hSüd-SO1021.7 hPa0.0 mm0.0 mm/h
27.01.2021 - 02.15Uhr-0.9 °C-3.3 °C84 %0.0 W/m²5.7 km/hSüd-SO8.3 km/hSüd-SO1021.7 hPa0.0 mm0.0 mm/h
27.01.2021 - 02.20Uhr-0.9 °C-3.3 °C84 %0.0 W/m²8.3 km/hSüd-SO8.3 km/hSüd-SO1021.7 hPa0.0 mm0.0 mm/h
27.01.2021 - 02.25Uhr-0.9 °C-3.3 °C84 %0.0 W/m²1021.6 hPa0.0 mm0.0 mm/h
27.01.2021 - 02.30Uhr-0.9 °C-3.3 °C84 %0.0 W/m²1021.5 hPa0.0 mm0.0 mm/h
27.01.2021 - 02.35Uhr-0.9 °C-3.3 °C84 %0.0 W/m²1021.4 hPa0.0 mm0.0 mm/h
27.01.2021 - 02.40Uhr-1.1 °C-3.4 °C85 %0.0 W/m²2.9 km/hSüd-SO4.0 km/hSüd-SO1021.4 hPa0.0 mm0.0 mm/h
27.01.2021 - 02.45Uhr-1.1 °C-3.5 °C84 %0.0 W/m²3.0 km/hSüd-SO8.3 km/hSüd-SO1021.4 hPa0.0 mm0.0 mm/h
27.01.2021 - 02.50Uhr-1.2 °C-3.6 °C84 %0.0 W/m²5.3 km/hSüd-SO8.3 km/hSüd-SO1021.4 hPa0.0 mm0.0 mm/h
27.01.2021 - 02.55Uhr-1.2 °C-3.6 °C84 %0.0 W/m²5.3 km/hSüd-SO8.3 km/hSüd-SO1021.3 hPa0.0 mm0.0 mm/h
27.01.2021 - 03.00Uhr-1.2 °C-3.4 °C85 %0.0 W/m²3.9 km/hSüd-SO8.3 km/hSüd-SO1021.2 hPa0.0 mm0.0 mm/h
27.01.2021 - 03.05Uhr-1.3 °C-3.5 °C85 %0.0 W/m²4.0 km/hSüd-SO8.3 km/hSüd-SO1021.1 hPa0.0 mm0.0 mm/h
27.01.2021 - 03.10Uhr-1.3 °C-3.5 °C85 %0.0 W/m²4.8 km/hSüd-SO8.3 km/hSüd-SO1021.1 hPa0.0 mm0.0 mm/h
27.01.2021 - 03.15Uhr-1.4 °C-3.6 °C85 %0.0 W/m²4.1 km/hSüd-SO8.3 km/hSüd-SO1021.1 hPa0.0 mm0.0 mm/h
27.01.2021 - 03.20Uhr-1.4 °C-3.5 °C85 %0.0 W/m²2.7 km/hSüd-SO4.0 km/hSüd-SO1021.1 hPa0.0 mm0.0 mm/h
27.01.2021 - 03.25Uhr-1.3 °C-3.3 °C86 %0.0 W/m²2.9 km/hSüd-SO4.0 km/hSüd-SO1021.0 hPa0.0 mm0.0 mm/h
27.01.2021 - 03.30Uhr-1.4 °C-3.6 °C85 %0.0 W/m²7.1 km/hSüd-SO8.3 km/hSüd-SO1020.9 hPa0.0 mm0.0 mm/h
27.01.2021 - 03.35Uhr-1.7 °C-3.7 °C86 %0.0 W/m²3.9 km/hSüd-SO8.3 km/hSüd-SO1020.8 hPa0.0 mm0.0 mm/h
27.01.2021 - 03.40Uhr-1.9 °C-4.1 °C85 %0.0 W/m²5.7 km/hSüd-SO8.3 km/hSüd-SO1020.7 hPa0.0 mm0.0 mm/h
27.01.2021 - 03.45Uhr-2.4 °C-4.5 °C85 %0.0 W/m²6.3 km/hSüd-SO8.3 km/hSüd-SO1020.7 hPa0.0 mm0.0 mm/h
27.01.2021 - 03.50Uhr-2.2 °C-4.2 °C86 %0.0 W/m²5.0 km/hSüd-SO8.3 km/hSüd-SO1020.7 hPa0.0 mm0.0 mm/h
27.01.2021 - 03.55Uhr-2.1 °C-4.0 °C87 %0.0 W/m²5.4 km/hSüd-SO8.3 km/hSüd-SO1020.7 hPa0.0 mm0.0 mm/h
27.01.2021 - 04.00Uhr-2.1 °C-4.0 °C87 %0.0 W/m²5.7 km/hSüd-SO8.3 km/hSüd-SO1020.7 hPa0.0 mm0.0 mm/h
27.01.2021 - 04.05Uhr-2.0 °C-3.9 °C87 %0.0 W/m²1020.7 hPa0.0 mm0.0 mm/h
27.01.2021 - 04.10Uhr-1.8 °C-3.7 °C87 %0.0 W/m²4.5 km/hSüd-SO8.3 km/hSüd-SO1020.8 hPa0.0 mm0.0 mm/h
27.01.2021 - 04.15Uhr-1.8 °C-3.7 °C87 %0.0 W/m²4.8 km/hSüd-SO8.3 km/hSüd-SO1020.8 hPa0.0 mm0.0 mm/h
27.01.2021 - 04.20Uhr-1.9 °C-3.8 °C87 %0.0 W/m²5.3 km/hSüd-SO8.3 km/hSüd-SO1020.6 hPa0.0 mm0.0 mm/h
27.01.2021 - 04.25Uhr-1.9 °C-3.6 °C88 %0.0 W/m²4.0 km/hSüd-SO8.3 km/hSüd-SO1020.6 hPa0.0 mm0.0 mm/h
27.01.2021 - 04.30Uhr-1.9 °C-3.6 °C88 %0.0 W/m²2.3 km/hSüd-SO4.0 km/hSüd-SO1020.6 hPa0.0 mm0.0 mm/h
27.01.2021 - 04.35Uhr-1.8 °C-3.6 °C88 %0.0 W/m²1.4 km/hSüd-SO4.0 km/hSüd-SO1020.7 hPa0.0 mm0.0 mm/h
27.01.2021 - 04.40Uhr-1.8 °C-3.7 °C87 %0.0 W/m²4.0 km/hSüd-SO4.0 km/hSüd-SO1020.7 hPa0.0 mm0.0 mm/h
27.01.2021 - 04.45Uhr-1.8 °C-3.7 °C87 %0.0 W/m²4.0 km/hSüd-SO4.0 km/hSüd-SO1020.7 hPa0.0 mm0.0 mm/h
27.01.2021 - 04.50Uhr-1.9 °C-3.8 °C87 %0.0 W/m²4.3 km/hSüd-SO8.3 km/hSüd-SO1020.7 hPa0.0 mm0.0 mm/h
27.01.2021 - 04.55Uhr3.3 km/hSüd-SO4.0 km/hSüd-SO